Time;durP1;ratioP1;P1;durP2;ratioP2;P2;SDS_P1;SDS_P2;PMS_P1;PMS_P2;Temp;Humidity;BMP_temperature;BMP_pressure;BME280_temperature;BME280_humidity;BME280_pressure;Samples;Min_cycle;Max_cycle;Signal;HPM_P1;HPM_P2
2022/04/28 00:00:59;;;;;;;10.05;9.07;;;6.00;99.90;;;;;;5043940;28;20121;-76
2022/04/28 00:03:25;;;;;;;9.27;8.38;;;6.00;99.90;;;;;;5043240;28;20017;-75
2022/04/28 00:05:51;;;;;;;9.70;8.70;;;6.10;99.90;;;;;;5051241;28;20032;-75
2022/04/28 00:08:16;;;;;;;9.82;8.05;;;6.10;99.90;;;;;;5038674;28;20025;-75
2022/04/28 00:10:42;;;;;;;10.38;8.63;;;6.10;99.90;;;;;;5044230;28;20395;-74
2022/04/28 00:13:09;;;;;;;10.02;8.55;;;6.10;99.90;;;;;;5041073;28;20025;-76
2022/04/28 00:15:35;;;;;;;9.23;8.35;;;6.20;99.90;;;;;;5041197;28;20032;-73
2022/04/28 00:18:01;;;;;;;9.15;8.25;;;6.20;99.90;;;;;;5053786;28;20025;-75
2022/04/28 00:20:26;;;;;;;11.32;9.45;;;6.10;99.90;;;;;;5052833;28;20110;-74
2022/04/28 00:22:52;;;;;;;9.98;8.70;;;6.00;99.90;;;;;;5054837;28;20021;-75
2022/04/28 00:25:17;;;;;;;12.20;9.80;;;5.90;99.90;;;;;;5054971;28;20067;-74
2022/04/28 00:27:43;;;;;;;9.45;8.60;;;5.70;99.90;;;;;;5054830;28;20036;-74
2022/04/28 00:30:09;;;;;;;10.35;8.40;;;5.80;99.90;;;;;;5054594;28;20032;-74
2022/04/28 00:32:35;;;;;;;10.57;8.43;;;5.80;99.90;;;;;;5054296;28;20021;-75
2022/04/28 00:35:01;;;;;;;9.13;8.23;;;5.70;99.90;;;;;;5054770;28;20055;-75
2022/04/28 00:37:26;;;;;;;9.48;8.57;;;5.90;99.90;;;;;;5054413;28;20060;-74
2022/04/28 00:39:53;;;;;;;9.25;8.32;;;6.10;99.90;;;;;;5054269;28;20401;-73
2022/04/28 00:42:19;;;;;;;11.13;9.30;;;6.20;99.90;;;;;;5053827;28;20025;-73
2022/04/28 00:44:46;;;;;;;9.93;8.98;;;6.30;99.90;;;;;;5055853;28;20025;-73
2022/04/28 00:47:13;;;;;;;9.82;8.82;;;6.20;99.90;;;;;;5055190;28;20017;-74
2022/04/28 00:52:24;;;;;;;10.63;9.45;;;6.40;99.90;;;;;;5040935;28;20095;-74
2022/04/28 00:54:53;;;;;;;9.35;8.45;;;6.00;99.90;;;;;;5054192;28;20111;-73
2022/04/28 00:57:19;;;;;;;9.52;8.63;;;5.90;99.90;;;;;;5073997;28;20025;-74
2022/04/28 00:59:46;;;;;;;10.55;9.25;;;6.00;99.90;;;;;;5052766;28;20045;-74
2022/04/28 01:02:12;;;;;;;10.98;9.85;;;5.80;99.90;;;;;;5053446;28;20050;-74
2022/04/28 01:04:38;;;;;;;10.40;9.40;;;5.90;99.90;;;;;;5053999;28;20025;-75
2022/04/28 01:07:05;;;;;;;9.07;8.15;;;6.10;99.90;;;;;;5053912;28;20534;-74
2022/04/28 01:09:36;;;;;;;10.50;9.50;;;6.10;99.90;;;;;;5053906;28;20025;-75
2022/04/28 01:12:14;;;;;;;9.48;8.63;;;6.10;99.90;;;;;;5053311;28;20078;-76
2022/04/28 01:14:41;;;;;;;9.57;7.85;;;6.10;99.90;;;;;;5053898;28;20036;-76
2022/04/28 01:17:07;;;;;;;10.07;9.18;;;6.10;99.90;;;;;;5053668;28;20031;-75
2022/04/28 01:19:33;;;;;;;10.63;9.52;;;6.00;99.90;;;;;;5053711;28;20029;-76
2022/04/28 01:21:58;;;;;;;9.73;8.65;;;5.90;99.90;;;;;;5052975;28;20021;-75
2022/04/28 01:24:23;;;;;;;8.90;8.00;;;6.00;99.90;;;;;;5053723;28;20394;-76
2022/04/28 01:26:53;;;;;;;9.73;8.70;;;6.00;99.90;;;;;;5053664;28;20024;-76
2022/04/28 01:29:19;;;;;;;9.57;8.77;;;5.90;99.90;;;;;;5054135;28;20107;-77
2022/04/28 01:31:44;;;;;;;10.45;9.32;;;5.90;99.90;;;;;;5052279;28;20593;-77
2022/04/28 01:34:10;;;;;;;10.02;9.00;;;5.80;99.90;;;;;;5052727;28;20029;-76
2022/04/28 01:36:36;;;;;;;10.35;9.35;;;5.70;99.90;;;;;;5053821;28;20471;-77
2022/04/28 01:39:05;;;;;;;9.93;8.90;;;5.60;99.90;;;;;;5053739;28;20111;-77
2022/04/28 01:41:31;;;;;;;11.25;10.13;;;5.60;99.90;;;;;;5052788;28;20437;-76
2022/04/28 01:43:56;;;;;;;10.95;9.98;;;5.40;99.90;;;;;;5053404;28;20025;-76
2022/04/28 01:46:22;;;;;;;11.27;10.00;;;5.30;99.90;;;;;;5053373;28;20013;-76
2022/04/28 01:48:47;;;;;;;11.43;10.32;;;5.40;99.90;;;;;;5051987;28;20486;-76
2022/04/28 01:56:43;;;;;;;9.63;8.65;;;5.00;99.90;;;;;;5021937;28;20041;-76
2022/04/28 01:59:09;;;;;;;13.50;11.57;;;5.10;99.90;;;;;;5053038;28;20028;-75
2022/04/28 02:01:34;;;;;;;13.10;10.60;;;5.10;99.90;;;;;;5050940;28;20128;-75
2022/04/28 02:04:00;;;;;;;12.05;10.85;;;5.10;99.90;;;;;;5053091;28;20041;-77
2022/04/28 02:06:25;;;;;;;11.35;10.25;;;5.10;99.90;;;;;;5051763;28;20387;-77
2022/04/28 02:08:51;;;;;;;10.48;9.48;;;4.90;99.90;;;;;;5053642;28;20120;-76
2022/04/28 02:11:16;;;;;;;10.38;9.48;;;4.80;99.90;;;;;;5051950;28;20025;-75
2022/04/28 02:13:42;;;;;;;10.70;9.70;;;4.80;99.90;;;;;;5072013;28;20126;-74
2022/04/28 02:16:09;;;;;;;10.80;9.80;;;4.80;99.90;;;;;;5051419;28;20386;-75
2022/04/28 02:18:34;;;;;;;12.50;11.38;;;4.70;99.90;;;;;;5051277;28;20041;-76
2022/04/28 02:21:00;;;;;;;10.93;9.80;;;4.60;99.90;;;;;;5050628;28;20110;-77
2022/04/28 02:23:25;;;;;;;11.52;10.25;;;4.60;99.90;;;;;;5053415;28;20048;-77
2022/04/28 02:25:51;;;;;;;11.18;9.85;;;4.50;99.90;;;;;;5042475;28;20064;-76
2022/04/28 02:28:16;;;;;;;10.57;9.68;;;4.70;99.90;;;;;;5048385;28;20394;-76
2022/04/28 02:30:42;;;;;;;12.05;10.85;;;4.70;99.90;;;;;;5051975;28;20021;-76
2022/04/28 02:33:10;;;;;;;11.00;9.75;;;4.70;99.90;;;;;;5052392;28;20067;-75
2022/04/28 02:35:37;;;;;;;12.15;11.00;;;4.60;99.90;;;;;;5052289;28;20486;-74
2022/04/28 02:38:03;;;;;;;12.25;11.05;;;4.60;99.90;;;;;;5050482;28;20075;-76
2022/04/28 02:40:28;;;;;;;11.93;10.80;;;4.70;99.90;;;;;;5051290;28;20520;-76
2022/04/28 02:42:54;;;;;;;11.20;10.30;;;4.40;99.90;;;;;;5050869;28;20366;-75
2022/04/28 02:45:19;;;;;;;12.70;11.38;;;4.40;99.90;;;;;;5052182;28;20025;-75
2022/04/28 02:47:45;;;;;;;11.57;10.48;;;4.50;99.90;;;;;;5052002;28;20032;-75
2022/04/28 02:50:11;;;;;;;12.57;11.38;;;4.70;99.90;;;;;;5051609;28;20036;-75
2022/04/28 02:52:40;;;;;;;11.73;10.52;;;4.60;99.90;;;;;;5051590;28;20025;-75
2022/04/28 02:55:09;;;;;;;12.80;11.50;;;4.80;99.90;;;;;;5051960;28;20104;-76
2022/04/28 02:57:35;;;;;;;12.18;10.98;;;4.60;99.90;;;;;;5051994;28;20021;-75
2022/04/28 03:00:04;;;;;;;13.35;12.10;;;4.60;99.90;;;;;;5051796;28;20100;-74
2022/04/28 03:02:30;;;;;;;13.77;12.52;;;4.60;99.90;;;;;;5051259;28;20032;-75
2022/04/28 03:04:56;;;;;;;13.38;11.90;;;4.50;99.90;;;;;;5051958;28;20028;-75
2022/04/28 03:12:50;;;;;;;11.68;10.57;;;4.70;99.90;;;;;;5051839;28;20059;-75
2022/04/28 03:15:15;;;;;;;12.57;11.20;;;4.80;99.90;;;;;;5051762;28;20064;-76
2022/04/28 03:17:41;;;;;;;12.23;10.93;;;4.80;99.90;;;;;;5051643;28;20494;-76
2022/04/28 03:20:07;;;;;;;11.77;10.60;;;4.70;99.90;;;;;;5051338;28;20021;-76
2022/04/28 03:22:33;;;;;;;12.60;11.38;;;4.70;99.90;;;;;;5041532;28;20030;-76
2022/04/28 03:24:59;;;;;;;11.43;10.32;;;4.70;99.90;;;;;;5047762;28;20110;-76
2022/04/28 03:27:27;;;;;;;13.23;12.13;;;4.70;99.90;;;;;;5042240;28;20017;-77
2022/04/28 03:29:53;;;;;;;14.40;13.10;;;4.40;99.90;;;;;;5044980;28;20407;-76
2022/04/28 03:32:19;;;;;;;12.63;11.40;;;4.10;99.90;;;;;;5040935;28;20029;-77
2022/04/28 03:34:44;;;;;;;13.80;12.23;;;4.10;99.90;;;;;;5038814;28;20132;-77
2022/04/28 03:37:10;;;;;;;12.15;11.00;;;4.20;99.90;;;;;;5042943;28;20116;-77
2022/04/28 03:39:37;;;;;;;12.32;11.23;;;4.00;99.90;;;;;;5047938;28;20110;-76
2022/04/28 03:42:04;;;;;;;12.07;10.88;;;4.20;99.90;;;;;;5049608;28;20025;-74
2022/04/28 03:44:30;;;;;;;10.80;9.80;;;4.20;99.90;;;;;;5051452;28;20052;-75
2022/04/28 03:46:56;;;;;;;13.10;11.05;;;4.00;99.90;;;;;;5051389;28;20471;-75
2022/04/28 03:49:21;;;;;;;12.93;11.73;;;4.30;99.90;;;;;;5053010;28;20025;-75
2022/04/28 03:51:47;;;;;;;13.50;12.15;;;4.10;99.90;;;;;;5055288;28;20033;-74
2022/04/28 03:54:12;;;;;;;18.15;16.33;;;3.80;99.90;;;;;;5055264;28;20390;-75
2022/04/28 03:56:38;;;;;;;17.73;16.13;;;3.60;99.90;;;;;;5055627;28;20025;-75
2022/04/28 03:59:04;;;;;;;15.10;13.52;;;3.70;99.90;;;;;;5053967;28;20040;-75
2022/04/28 04:01:29;;;;;;;11.23;10.13;;;3.70;99.90;;;;;;5053168;28;20060;-74
2022/04/28 04:03:55;;;;;;;12.65;11.35;;;3.70;99.90;;;;;;5055629;28;20032;-76
2022/04/28 04:06:21;;;;;;;13.60;12.30;;;3.80;99.90;;;;;;5055249;28;20021;-76
2022/04/28 04:08:47;;;;;;;13.45;12.02;;;3.70;99.90;;;;;;5053692;28;20426;-77
2022/04/28 04:11:13;;;;;;;13.93;12.52;;;3.80;99.90;;;;;;5053029;28;20033;-76
2022/04/28 04:13:38;;;;;;;12.15;10.80;;;3.90;99.90;;;;;;5053651;28;20052;-77
2022/04/28 04:16:05;;;;;;;11.98;10.80;;;3.90;99.90;;;;;;5053924;28;20050;-75
2022/04/28 04:18:31;;;;;;;13.20;11.80;;;4.00;99.90;;;;;;5054808;28;20106;-75
2022/04/28 04:20:56;;;;;;;12.70;11.35;;;3.90;99.90;;;;;;5054367;28;20056;-75
2022/04/28 04:23:22;;;;;;;19.38;11.30;;;4.00;99.90;;;;;;5054946;28;20069;-73
2022/04/28 04:25:48;;;;;;;12.00;10.52;;;4.00;99.90;;;;;;5053513;28;20439;-73
2022/04/28 04:28:13;;;;;;;13.10;11.55;;;4.10;99.90;;;;;;5054750;28;20096;-74
2022/04/28 04:33:23;;;;;;;14.52;10.85;;;4.00;99.90;;;;;;5054950;28;20035;-74
2022/04/28 04:35:49;;;;;;;12.40;10.20;;;4.10;99.90;;;;;;5054450;28;20021;-74
2022/04/28 04:38:14;;;;;;;13.35;11.10;;;4.10;99.90;;;;;;5054640;28;20441;-74
2022/04/28 04:40:40;;;;;;;12.98;11.70;;;4.10;99.90;;;;;;5052420;28;20382;-74
2022/04/28 04:43:06;;;;;;;12.90;10.75;;;4.10;99.90;;;;;;5054405;28;20569;-74
2022/04/28 04:45:31;;;;;;;14.40;10.20;;;4.30;99.90;;;;;;5052871;28;20508;-75
2022/04/28 04:47:57;;;;;;;13.45;10.65;;;4.20;99.90;;;;;;5054184;28;20032;-75
2022/04/28 04:50:22;;;;;;;15.93;11.85;;;4.30;99.90;;;;;;5052150;28;20130;-75
2022/04/28 04:52:48;;;;;;;13.35;10.77;;;4.30;99.90;;;;;;5054185;28;20056;-75
2022/04/28 04:55:13;;;;;;;11.32;10.05;;;4.30;99.90;;;;;;5054220;28;20036;-75
2022/04/28 04:57:39;;;;;;;11.90;10.80;;;4.40;99.90;;;;;;5052836;28;20502;-74
2022/04/28 05:00:06;;;;;;;11.80;10.60;;;4.50;99.90;;;;;;5053651;28;20048;-75
2022/04/28 05:02:31;;;;;;;12.38;10.27;;;4.60;99.90;;;;;;5053263;28;20087;-75
2022/04/28 05:04:57;;;;;;;11.07;9.93;;;4.70;99.90;;;;;;5054060;28;20025;-73
2022/04/28 05:07:22;;;;;;;11.95;10.80;;;4.80;99.90;;;;;;5054046;28;20104;-75
2022/04/28 05:09:48;;;;;;;13.25;11.82;;;4.90;99.90;;;;;;5053878;28;20071;-75
2022/04/28 05:12:13;;;;;;;11.40;10.30;;;5.00;99.90;;;;;;5053272;28;20029;-75
2022/04/28 05:14:39;;;;;;;13.02;10.10;;;5.10;99.90;;;;;;5053839;28;20454;-75
2022/04/28 05:17:04;;;;;;;13.50;10.80;;;5.10;99.90;;;;;;5053730;28;20109;-75
2022/04/28 05:19:30;;;;;;;13.70;11.30;;;5.30;99.90;;;;;;5053676;28;20040;-75
2022/04/28 05:21:55;;;;;;;14.63;12.10;;;5.30;99.90;;;;;;5053026;28;20021;-76
2022/04/28 05:24:22;;;;;;;16.73;12.60;;;5.50;99.90;;;;;;5053411;28;20419;-75
2022/04/28 05:26:47;;;;;;;13.75;12.35;;;5.60;99.90;;;;;;5053518;28;20634;-75
2022/04/28 05:29:13;;;;;;;14.50;12.50;;;5.60;99.90;;;;;;5053539;28;20018;-75
2022/04/28 05:31:39;;;;;;;16.65;13.05;;;5.70;99.90;;;;;;5039395;28;20498;-75
2022/04/28 05:34:04;;;;;;;14.95;13.45;;;5.90;99.90;;;;;;5053498;28;20025;-75
2022/04/28 05:36:30;;;;;;;14.57;12.70;;;6.00;99.90;;;;;;5053381;28;20029;-76
2022/04/28 05:39:00;;;;;;;14.20;12.70;;;6.00;99.90;;;;;;5053316;28;20390;-75
2022/04/28 05:41:26;;;;;;;17.25;15.43;;;6.10;99.90;;;;;;5051338;28;20110;-75
2022/04/28 05:46:37;;;;;;;13.07;11.68;;;6.50;99.90;;;;;;5041038;28;20024;-75
2022/04/28 05:49:05;;;;;;;12.68;11.48;;;6.60;99.90;;;;;;5053062;28;20024;-75
2022/04/28 05:51:30;;;;;;;13.43;12.13;;;6.70;99.90;;;;;;5052209;28;20795;-75
2022/04/28 05:53:57;;;;;;;17.05;14.07;;;6.80;99.90;;;;;;5052416;28;20047;-76
2022/04/28 05:56:22;;;;;;;13.32;12.00;;;6.90;99.90;;;;;;5052043;28;20056;-75
2022/04/28 05:58:48;;;;;;;12.73;11.43;;;6.80;99.90;;;;;;5038481;28;20480;-75
2022/04/28 06:01:13;;;;;;;12.13;10.80;;;6.80;99.90;;;;;;5052113;28;20036;-75
2022/04/28 06:03:41;;;;;;;12.18;10.93;;;6.80;99.90;;;;;;5052869;28;20021;-75
2022/04/28 06:06:07;;;;;;;11.35;10.25;;;6.90;99.90;;;;;;5052925;28;20048;-75
2022/04/28 06:08:32;;;;;;;11.93;10.68;;;6.90;99.90;;;;;;5052833;28;20033;-75
2022/04/28 06:10:58;;;;;;;12.15;10.63;;;6.90;99.90;;;;;;5052036;28;20391;-76
2022/04/28 06:13:24;;;;;;;11.38;10.23;;;6.80;99.90;;;;;;5052326;28;20082;-76
2022/04/28 06:15:50;;;;;;;17.50;10.75;;;6.90;99.90;;;;;;5052646;28;20033;-76
2022/04/28 06:18:15;;;;;;;11.88;10.57;;;7.20;99.90;;;;;;5052634;28;20123;-76
2022/04/28 06:20:41;;;;;;;11.82;10.63;;;7.30;99.90;;;;;;5050612;28;20033;-76
2022/04/28 06:23:06;;;;;;;11.57;9.25;;;7.40;99.90;;;;;;5051389;28;20025;-75
2022/04/28 06:25:32;;;;;;;11.00;9.90;;;7.50;99.90;;;;;;5052180;28;20051;-75
2022/04/28 06:27:58;;;;;;;11.13;9.13;;;7.60;99.90;;;;;;5052270;28;20017;-76
2022/04/28 06:30:24;;;;;;;11.15;9.85;;;7.80;99.90;;;;;;5051271;28;20047;-78
2022/04/28 06:32:49;;;;;;;10.73;9.73;;;7.80;99.90;;;;;;5053501;28;20052;-80
2022/04/28 06:35:15;;;;;;;12.25;10.10;;;7.80;99.90;;;;;;5041032;28;20028;-79
2022/04/28 06:37:41;;;;;;;10.90;9.80;;;7.90;99.90;;;;;;5052499;28;20506;-76
2022/04/28 06:40:07;;;;;;;11.65;9.75;;;7.90;99.90;;;;;;5051844;28;20107;-76
2022/04/28 06:42:32;;;;;;;11.27;10.13;;;8.00;99.90;;;;;;5051534;28;20029;-77
2022/04/28 06:44:58;;;;;;;10.80;9.35;;;8.10;99.90;;;;;;5052078;28;20562;-75
2022/04/28 06:47:24;;;;;;;10.13;9.13;;;8.30;99.90;;;;;;5052016;28;20022;-76
2022/04/28 06:49:49;;;;;;;9.95;8.95;;;8.40;99.90;;;;;;5051878;28;20437;-75
2022/04/28 06:52:15;;;;;;;11.10;9.27;;;8.40;99.90;;;;;;5051228;28;20031;-74
2022/04/28 06:54:40;;;;;;;12.00;9.55;;;8.50;99.90;;;;;;5051696;28;20029;-74
2022/04/28 06:57:06;;;;;;;11.98;9.45;;;8.60;99.90;;;;;;5051807;28;20029;-76
2022/04/28 06:59:32;;;;;;;9.77;8.77;;;8.50;99.90;;;;;;5051854;28;20032;-73
2022/04/28 07:01:57;;;;;;;10.57;9.40;;;8.70;99.90;;;;;;5049903;28;20387;-74
2022/04/28 07:04:23;;;;;;;11.48;9.20;;;8.90;99.90;;;;;;5044788;28;20075;-75
2022/04/28 07:06:48;;;;;;;10.50;9.38;;;9.20;99.90;;;;;;5045416;28;20025;-77
2022/04/28 07:09:14;;;;;;;10.73;9.63;;;9.30;99.90;;;;;;5039065;28;20416;-75
2022/04/28 07:11:40;;;;;;;10.35;9.23;;;9.40;99.90;;;;;;5049653;28;20025;-76
2022/04/28 07:14:05;;;;;;;10.98;9.30;;;9.40;99.90;;;;;;5043569;28;20036;-75
2022/04/28 07:16:30;;;;;;;9.82;8.70;;;9.50;99.90;;;;;;5045077;28;20033;-76
2022/04/28 07:18:56;;;;;;;11.40;9.40;;;9.70;99.90;;;;;;5030496;28;20021;-74
2022/04/28 07:21:22;;;;;;;10.30;9.23;;;9.80;99.90;;;;;;5042974;28;20028;-75
2022/04/28 07:23:47;;;;;;;12.27;8.77;;;9.90;99.90;;;;;;5038234;28;20510;-75
2022/04/28 07:26:13;;;;;;;9.70;8.70;;;9.90;99.90;;;;;;5038272;28;20025;-76
2022/04/28 07:28:38;;;;;;;10.43;9.32;;;10.00;99.90;;;;;;5031600;28;20396;-75
2022/04/28 07:31:04;;;;;;;9.88;8.85;;;10.20;99.90;;;;;;5043967;28;20072;-75
2022/04/28 07:33:29;;;;;;;10.30;9.23;;;10.20;99.90;;;;;;5051699;28;20033;-75
2022/04/28 07:35:55;;;;;;;11.20;9.43;;;10.50;99.90;;;;;;5051511;28;20029;-74
2022/04/28 07:38:22;;;;;;;10.45;9.45;;;10.60;99.90;;;;;;5045406;28;20026;-75
2022/04/28 07:40:47;;;;;;;10.43;9.38;;;10.60;99.90;;;;;;5042678;28;20033;-76
2022/04/28 07:43:13;;;;;;;9.88;8.88;;;10.70;99.90;;;;;;5038073;28;20017;-75
2022/04/28 07:45:38;;;;;;;10.05;8.82;;;10.90;99.90;;;;;;5038843;28;20148;-75
2022/04/28 07:48:05;;;;;;;10.13;8.50;;;11.00;99.90;;;;;;5043349;28;20032;-75
2022/04/28 07:50:30;;;;;;;10.63;8.95;;;11.10;99.90;;;;;;5043499;28;20490;-75
2022/04/28 07:52:57;;;;;;;8.85;7.97;;;11.20;99.90;;;;;;5049875;28;20107;-76
2022/04/28 07:55:22;;;;;;;8.82;8.02;;;11.20;99.90;;;;;;5051285;28;20479;-76
2022/04/28 07:57:48;;;;;;;9.15;7.72;;;11.40;99.90;;;;;;5044966;28;20022;-76
2022/04/28 08:00:14;;;;;;;8.95;8.05;;;11.50;99.90;;;;;;5043713;28;20029;-76
2022/04/28 08:02:39;;;;;;;9.60;8.43;;;11.70;99.90;;;;;;5050942;28;20061;-76
2022/04/28 08:05:06;;;;;;;8.75;7.28;;;11.80;99.90;;;;;;5051426;28;20059;-76
2022/04/28 08:07:33;;;;;;;10.05;7.65;;;12.00;99.90;;;;;;5051252;28;20040;-75
2022/04/28 08:09:59;;;;;;;8.98;7.63;;;12.00;99.90;;;;;;5051568;28;20469;-75
2022/04/28 08:12:25;;;;;;;7.63;6.63;;;12.10;99.90;;;;;;5044422;28;20061;-75
2022/04/28 08:14:50;;;;;;;7.50;6.70;;;12.10;99.90;;;;;;5044175;28;20029;-76
2022/04/28 08:17:16;;;;;;;7.97;7.00;;;12.30;99.90;;;;;;5036951;28;20093;-75
2022/04/28 08:19:41;;;;;;;7.88;6.57;;;12.40;99.90;;;;;;5038052;28;20021;-75
2022/04/28 08:22:07;;;;;;;9.80;7.03;;;12.60;99.90;;;;;;5050288;28;20483;-76
2022/04/28 08:24:32;;;;;;;7.82;7.03;;;12.70;99.90;;;;;;5051120;28;20025;-76
2022/04/28 08:26:58;;;;;;;8.73;6.90;;;12.70;99.90;;;;;;5037589;28;20078;-76
2022/04/28 08:29:24;;;;;;;7.13;6.40;;;12.80;99.90;;;;;;5051041;28;20123;-76
2022/04/28 08:31:50;;;;;;;8.93;6.78;;;12.80;99.90;;;;;;5050334;28;20487;-76
2022/04/28 08:34:21;;;;;;;8.73;6.28;;;13.00;99.90;;;;;;5049759;28;20029;-75
2022/04/28 08:36:48;;;;;;;7.28;6.47;;;13.10;99.90;;;;;;5034898;28;20025;-76
2022/04/28 08:39:14;;;;;;;6.82;6.13;;;13.30;99.90;;;;;;5047960;28;20021;-76
2022/04/28 08:41:45;;;;;;;8.55;6.68;;;13.30;99.90;;;;;;5053771;28;20479;-74
2022/04/28 08:44:22;;;;;;;6.43;5.82;;;13.30;99.90;;;;;;5053310;28;20052;-74
2022/04/28 08:46:50;;;;;;;6.63;5.82;;;13.60;99.90;;;;;;5054556;28;20017;-76
2022/04/28 08:49:27;;;;;;;6.35;5.75;;;13.60;99.90;;;;;;5054373;28;20025;-73
2022/04/28 08:51:55;;;;;;;9.98;6.75;;;13.70;99.90;;;;;;5043539;28;20025;-76
2022/04/28 08:54:22;;;;;;;7.32;5.82;;;13.80;99.90;;;;;;5051863;28;20047;-76
2022/04/28 08:56:50;;;;;;;7.35;6.65;;;13.50;99.90;;;;;;5043274;28;20025;-76
2022/04/28 08:59:15;;;;;;;7.03;5.85;;;13.40;99.90;;;;;;5047770;28;20510;-76
2022/04/28 09:01:42;;;;;;;6.72;6.03;;;13.20;99.90;;;;;;5043052;28;20029;-76
2022/04/28 09:04:10;;;;;;;6.70;5.70;;;13.10;99.90;;;;;;5052845;28;20022;-76
2022/04/28 09:06:37;;;;;;;6.18;5.57;;;13.10;99.90;;;;;;5052810;28;20074;-76
2022/04/28 09:09:08;;;;;;;6.63;6.03;;;13.10;99.90;;;;;;5040912;28;20056;-75
2022/04/28 09:11:35;;;;;;;6.38;5.68;;;13.10;99.90;;;;;;5053425;28;20119;-75
2022/04/28 09:14:09;;;;;;;7.88;6.25;;;13.10;99.90;;;;;;5054028;28;20071;-74
2022/04/28 09:16:42;;;;;;;6.28;5.68;;;13.10;99.90;;;;;;5053418;28;20025;-74
2022/04/28 09:19:09;;;;;;;8.52;6.35;;;13.40;99.90;;;;;;5040946;28;20036;-74
2022/04/28 09:21:36;;;;;;;6.95;5.63;;;13.40;99.90;;;;;;5047241;28;20029;-74
2022/04/28 09:24:02;;;;;;;6.57;5.88;;;13.50;99.90;;;;;;5053883;28;20028;-74
2022/04/28 09:26:29;;;;;;;6.40;5.55;;;13.50;99.90;;;;;;5053579;28;20128;-74
2022/04/28 09:28:55;;;;;;;6.15;5.43;;;13.70;99.90;;;;;;5053803;28;20071;-73
2022/04/28 09:31:23;;;;;;;6.50;5.85;;;13.70;99.90;;;;;;5053140;28;20025;-73
2022/04/28 09:33:49;;;;;;;8.77;5.88;;;13.90;99.90;;;;;;5053612;28;20032;-74
2022/04/28 09:36:15;;;;;;;8.25;5.95;;;14.40;99.90;;;;;;5053566;28;20029;-74
2022/04/28 09:38:40;;;;;;;7.10;6.00;;;14.80;99.90;;;;;;5053586;28;20029;-76
2022/04/28 09:43:58;;;;;;;6.57;5.53;;;14.80;99.90;;;;;;5053622;28;20537;-76
2022/04/28 09:46:25;;;;;;;5.93;5.38;;;14.70;99.90;;;;;;5052190;28;20045;-76
2022/04/28 09:48:52;;;;;;;7.22;5.60;;;14.80;99.90;;;;;;5059836;28;20479;-76
2022/04/28 09:51:22;;;;;;;7.60;5.28;;;14.80;99.90;;;;;;5051190;28;20123;-76
2022/04/28 09:53:49;;;;;;;7.28;5.97;;;14.90;99.90;;;;;;5051915;28;20029;-76
2022/04/28 09:56:18;;;;;;;5.93;5.40;;;15.00;99.90;;;;;;5053620;28;20032;-73
2022/04/28 09:58:45;;;;;;;6.40;5.80;;;15.20;99.90;;;;;;5053250;28;20095;-74
2022/04/28 10:01:11;;;;;;;9.48;5.72;;;15.20;99.90;;;;;;5037028;28;20031;-73
2022/04/28 10:03:40;;;;;;;8.13;6.00;;;15.20;99.90;;;;;;5052988;28;20096;-74
2022/04/28 10:06:06;;;;;;;6.82;5.70;;;15.40;99.90;;;;;;5051474;28;20047;-74
2022/04/28 10:08:33;;;;;;;7.15;5.40;;;15.60;99.90;;;;;;5051062;28;20017;-74
2022/04/28 10:11:01;;;;;;;5.50;5.00;;;15.60;99.90;;;;;;5050698;28;20090;-74
2022/04/28 10:13:28;;;;;;;9.20;5.90;;;15.60;99.90;;;;;;5065124;28;20013;-74
2022/04/28 10:16:15;;;;;;;7.50;5.75;;;15.50;99.90;;;;;;5052787;28;20112;-74
2022/04/28 10:19:17;;;;;;;6.10;5.10;;;15.30;99.90;;;;;;5051160;28;20017;-74
2022/04/28 10:21:48;;;;;;;8.27;5.57;;;15.60;99.90;;;;;;5047580;28;20025;-75
2022/04/28 10:33:02;;;;;;;6.15;5.55;;;15.70;99.90;;;;;;5052546;28;20068;-74
2022/04/28 10:35:49;;;;;;;6.22;5.38;;;15.70;99.90;;;;;;5048559;28;20025;-74
2022/04/28 10:38:19;;;;;;;7.90;5.20;;;15.70;99.90;;;;;;5076730;28;20025;-74
2022/04/28 10:41:05;;;;;;;5.97;5.18;;;15.90;99.90;;;;;;5051618;28;20028;-75
2022/04/28 10:43:33;;;;;;;6.32;5.40;;;15.90;99.90;;;;;;5044705;28;20016;-74
2022/04/28 10:46:01;;;;;;;6.40;5.13;;;15.80;99.90;;;;;;5052051;28;20047;-74
2022/04/28 10:48:31;;;;;;;7.57;5.20;;;16.20;99.90;;;;;;5052012;28;20025;-74
2022/04/28 10:51:10;;;;;;;5.43;4.80;;;16.60;99.90;;;;;;5051182;28;20029;-74
2022/04/28 10:53:54;;;;;;;5.30;4.70;;;16.80;99.90;;;;;;5051485;28;20021;-74
2022/04/28 10:56:20;;;;;;;5.95;4.70;;;16.90;98.50;;;;;;5044150;28;20017;-74
2022/04/28 10:58:45;;;;;;;7.53;6.72;;;16.90;98.90;;;;;;5051623;28;20554;-74
2022/04/28 11:01:25;;;;;;;7.30;4.60;;;17.00;99.90;;;;;;5051069;28;20036;-74
2022/04/28 11:03:56;;;;;;;5.07;4.43;;;17.40;99.70;;;;;;5050718;28;20112;-74
2022/04/28 11:06:34;;;;;;;5.90;4.85;;;17.90;99.70;;;;;;5043160;28;20017;-74
2022/04/28 11:09:01;;;;;;;7.55;4.82;;;18.20;99.40;;;;;;5050129;28;20021;-74
2022/04/28 11:11:41;;;;;;;7.55;4.57;;;17.90;96.90;;;;;;5051040;28;20024;-74
2022/04/28 11:14:08;;;;;;;6.20;4.35;;;17.50;98.50;;;;;;5049425;28;20447;-74
2022/04/28 11:16:34;;;;;;;7.60;4.88;;;17.20;96.80;;;;;;5052017;28;20344;-74
2022/04/28 11:19:01;;;;;;;5.60;5.10;;;17.00;96.60;;;;;;5051613;28;20545;-74
2022/04/28 11:21:27;;;;;;;5.63;4.90;;;17.00;95.70;;;;;;5050800;28;20025;-74
2022/04/28 11:23:53;;;;;;;5.45;4.43;;;17.00;96.90;;;;;;5048205;28;20094;-74
2022/04/28 11:26:20;;;;;;;5.25;4.75;;;17.20;97.00;;;;;;5051430;28;20471;-74
2022/04/28 11:28:46;;;;;;;6.57;4.45;;;17.80;97.30;;;;;;5047429;28;20025;-74
2022/04/28 11:31:14;;;;;;;7.70;4.13;;;18.10;95.80;;;;;;5051227;28;20025;-74
2022/04/28 11:33:42;;;;;;;6.15;5.00;;;18.40;96.40;;;;;;5051827;28;20047;-74
2022/04/28 11:36:15;;;;;;;4.85;4.20;;;18.00;95.60;;;;;;5051874;28;20017;-74
2022/04/28 11:38:49;;;;;;;6.13;4.80;;;18.00;95.50;;;;;;5058562;28;20017;-74
2022/04/28 11:41:15;;;;;;;5.03;4.47;;;18.00;94.20;;;;;;5061253;28;20029;-74
2022/04/28 11:43:40;;;;;;;5.68;4.15;;;18.00;93.70;;;;;;5062051;28;20028;-74
2022/04/28 11:46:07;;;;;;;6.07;4.68;;;17.90;94.80;;;;;;5061760;28;20024;-74
2022/04/28 11:48:34;;;;;;;5.30;4.20;;;18.30;94.90;;;;;;5069941;28;20089;-74
2022/04/28 11:51:04;;;;;;;4.75;4.18;;;18.50;93.20;;;;;;5069837;28;20059;-74
2022/04/28 11:53:44;;;;;;;5.82;4.13;;;18.70;92.70;;;;;;5072043;28;20018;-74
2022/04/28 11:56:14;;;;;;;4.10;3.70;;;18.30;92.10;;;;;;5065568;28;20021;-74
2022/04/28 11:58:40;;;;;;;4.47;3.85;;;18.10;93.20;;;;;;5052079;28;20017;-74
2022/04/28 12:01:05;;;;;;;4.28;3.60;;;18.40;92.90;;;;;;5049718;28;20429;-74
2022/04/28 12:03:31;;;;;;;4.47;3.65;;;19.00;93.40;;;;;;5050747;28;20028;-73
2022/04/28 12:05:57;;;;;;;5.93;3.47;;;19.10;91.10;;;;;;5051664;28;20548;-74
2022/04/28 12:08:25;;;;;;;4.05;3.60;;;19.20;92.30;;;;;;5051495;28;20024;-74
2022/04/28 12:19:19;;;;;;;5.43;3.42;;;19.50;90.60;;;;;;5047483;28;20108;-74
2022/04/28 12:19:20;;;;;;;5.15;3.60;;;19.40;90.80;;;;;;5053747;28;20406;-74
2022/04/28 12:21:46;;;;;;;6.10;4.00;;;19.40;88.50;;;;;;5054096;28;20509;-74
2022/04/28 12:24:16;;;;;;;4.53;3.53;;;19.20;84.40;;;;;;5053239;28;20056;-74
2022/04/28 12:26:43;;;;;;;6.68;3.60;;;19.40;91.70;;;;;;5054731;28;20078;-74
2022/04/28 12:29:15;;;;;;;4.72;3.85;;;20.10;90.20;;;;;;5054653;28;20083;-74
2022/04/28 12:31:41;;;;;;;4.90;3.80;;;20.30;85.80;;;;;;5052760;28;20165;-74
2022/04/28 12:34:19;;;;;;;4.10;3.70;;;20.40;85.50;;;;;;5053710;28;20033;-74
2022/04/28 12:36:53;;;;;;;4.95;4.45;;;20.80;85.70;;;;;;5054219;28;20361;-74
2022/04/28 12:39:19;;;;;;;5.15;3.88;;;20.10;84.20;;;;;;5045956;28;20041;-74
2022/04/28 12:41:45;;;;;;;5.47;3.58;;;19.80;84.50;;;;;;5053690;28;20100;-74
2022/04/28 12:44:10;;;;;;;4.22;3.83;;;20.20;86.30;;;;;;5052911;28;20079;-74
2022/04/28 12:46:47;;;;;;;5.32;3.60;;;21.00;84.40;;;;;;5052954;28;20096;-74
2022/04/28 12:49:16;;;;;;;5.07;3.50;;;21.10;81.40;;;;;;5051858;28;20017;-74
2022/04/28 12:51:52;;;;;;;4.95;3.70;;;21.70;83.00;;;;;;5048510;28;20116;-74
2022/04/28 12:54:25;;;;;;;4.22;3.47;;;21.20;82.30;;;;;;5050610;28;20118;-74
2022/04/28 12:57:02;;;;;;;4.60;3.65;;;21.40;84.20;;;;;;5053344;28;20074;-75
2022/04/28 12:59:36;;;;;;;4.75;3.22;;;21.20;82.50;;;;;;5052500;28;20100;-74
2022/04/28 13:02:02;;;;;;;6.47;3.97;;;21.50;85.50;;;;;;5048610;28;20427;-73
2022/04/28 13:04:28;;;;;;;4.00;3.60;;;21.50;80.90;;;;;;5052401;28;20064;-74
2022/04/28 13:06:55;;;;;;;5.10;4.00;;;21.80;81.20;;;;;;5051114;28;20060;-73
2022/04/28 13:09:22;;;;;;;4.05;3.47;;;22.30;80.40;;;;;;5053882;28;20070;-74
2022/04/28 13:11:49;;;;;;;5.20;3.50;;;22.80;81.40;;;;;;5044452;28;20048;-74
2022/04/28 13:14:17;;;;;;;5.60;3.78;;;23.00;79.80;;;;;;5054016;28;20033;-74
2022/04/28 13:16:43;;;;;;;4.07;3.30;;;22.80;78.70;;;;;;5052958;28;20092;-74
2022/04/28 13:19:10;;;;;;;5.75;3.75;;;22.60;78.90;;;;;;5053735;28;20487;-74